Time;durP1;ratioP1;P1;durP2;ratioP2;P2;SDS_P1;SDS_P2;PMS_P1;PMS_P2;Temp;Humidity;BMP_temperature;BMP_pressure;BME280_temperature;BME280_humidity;BME280_pressure;Samples;Min_cycle;Max_cycle;Signal;HPM_P1;HPM_P2
2021/12/26 00:01:38;;;;;;;6.75;3.45;;;;;;;;;;4994600;28;97025;-80
2021/12/26 00:04:05;;;;;;;8.05;3.17;;;;;;;;;;4995502;28;97887;-81
2021/12/26 00:06:32;;;;;;;5.57;2.53;;;;;;;;;;4997076;28;95426;-79
2021/12/26 00:08:59;;;;;;;6.18;2.95;;;;;;;;;;4997129;28;96948;-78
2021/12/26 00:11:26;;;;;;;7.60;3.33;;;;;;;;;;4993032;28;95669;-79
2021/12/26 00:13:54;;;;;;;7.40;3.40;;;;;;;;;;4991430;28;96788;-79
2021/12/26 00:16:20;;;;;;;6.07;3.20;;;;;;;;;;4992212;28;97367;-79
2021/12/26 00:18:47;;;;;;;6.47;3.28;;;;;;;;;;4994965;28;96520;-78
2021/12/26 00:21:14;;;;;;;8.07;3.33;;;;;;;;;;4995354;28;96798;-78
2021/12/26 00:23:41;;;;;;;7.35;2.88;;;;;;;;;;5008948;28;96255;-80
2021/12/26 00:26:08;;;;;;;8.50;3.75;;;;;;;;;;5011018;28;95456;-81
2021/12/26 00:28:34;;;;;;;8.35;3.92;;;;;;;;;;4998168;28;96750;-80
2021/12/26 00:31:01;;;;;;;7.38;3.33;;;;;;;;;;4991974;28;95616;-78
2021/12/26 00:33:28;;;;;;;5.78;3.13;;;;;;;;;;4996759;28;96791;-80
2021/12/26 00:35:54;;;;;;;6.95;3.28;;;;;;;;;;4993185;28;97298;-80
2021/12/26 00:38:21;;;;;;;6.10;3.03;;;;;;;;;;5010018;28;95866;-79
2021/12/26 00:40:47;;;;;;;7.80;3.65;;;;;;;;;;5011771;28;95718;-78
2021/12/26 00:43:14;;;;;;;11.68;4.40;;;;;;;;;;4999481;28;97285;-80
2021/12/26 00:45:40;;;;;;;6.68;3.38;;;;;;;;;;4988777;28;95763;-79
2021/12/26 00:48:07;;;;;;;5.63;3.30;;;;;;;;;;4997262;28;96952;-80
2021/12/26 00:50:34;;;;;;;9.30;2.65;;;;;;;;;;4993297;28;96587;-80
2021/12/26 00:53:01;;;;;;;6.78;3.05;;;;;;;;;;4994696;28;96824;-79
2021/12/26 00:55:27;;;;;;;6.78;3.20;;;;;;;;;;5000916;28;97890;-80
2021/12/26 00:57:54;;;;;;;5.97;2.80;;;;;;;;;;4993747;28;95417;-79
2021/12/26 01:00:22;;;;;;;4.65;2.65;;;;;;;;;;4990587;28;97344;-80
2021/12/26 01:02:49;;;;;;;6.18;3.00;;;;;;;;;;4984503;28;97484;-79
2021/12/26 01:05:17;;;;;;;7.72;3.15;;;;;;;;;;4989242;28;95331;-80
2021/12/26 01:10:16;;;;;;;4.72;2.50;;;;;;;;;;5010576;28;97457;-80
2021/12/26 01:12:42;;;;;;;5.85;2.70;;;;;;;;;;5009820;28;95306;-81
2021/12/26 01:15:09;;;;;;;4.93;2.70;;;;;;;;;;4990257;28;97572;-79
2021/12/26 01:17:41;;;;;;;5.93;3.33;;;;;;;;;;4990763;28;95407;-78
2021/12/26 01:20:12;;;;;;;5.68;2.95;;;;;;;;;;4997714;28;95901;-80
2021/12/26 01:22:39;;;;;;;5.40;3.33;;;;;;;;;;4992288;28;96309;-79
2021/12/26 01:25:06;;;;;;;5.20;2.92;;;;;;;;;;4991641;28;95202;-77
2021/12/26 01:27:33;;;;;;;6.70;2.58;;;;;;;;;;4991698;28;96705;-78
2021/12/26 01:29:59;;;;;;;5.40;2.97;;;;;;;;;;5003670;28;97254;-79
2021/12/26 01:32:26;;;;;;;7.50;2.47;;;;;;;;;;4992263;28;95342;-79
2021/12/26 01:34:52;;;;;;;6.35;3.10;;;;;;;;;;4996192;28;96737;-79
2021/12/26 01:37:19;;;;;;;5.43;2.70;;;;;;;;;;4983900;28;95919;-79
2021/12/26 01:39:45;;;;;;;5.65;3.17;;;;;;;;;;4994007;28;96840;-79
2021/12/26 01:42:12;;;;;;;5.30;2.55;;;;;;;;;;4987686;28;97159;-78
2021/12/26 01:44:40;;;;;;;6.95;2.85;;;;;;;;;;4989088;28;95785;-78
2021/12/26 01:47:07;;;;;;;5.13;2.83;;;;;;;;;;4990736;28;96839;-78
2021/12/26 01:49:34;;;;;;;4.93;2.38;;;;;;;;;;4989717;28;97323;-80
2021/12/26 01:52:02;;;;;;;4.07;2.38;;;;;;;;;;4990002;28;95784;-78
2021/12/26 01:54:38;;;;;;;4.55;2.30;;;;;;;;;;5009212;28;96826;-79
2021/12/26 01:57:10;;;;;;;4.78;2.55;;;;;;;;;;5010284;28;97217;-79
2021/12/26 01:59:37;;;;;;;4.13;2.58;;;;;;;;;;5010235;28;96597;-80
2021/12/26 02:02:04;;;;;;;4.95;2.70;;;;;;;;;;4994998;28;97480;-78
2021/12/26 02:04:31;;;;;;;8.45;2.75;;;;;;;;;;5018021;28;96020;-79
2021/12/26 02:06:59;;;;;;;5.97;2.75;;;;;;;;;;5010810;28;96996;-77
2021/12/26 02:09:25;;;;;;;4.75;2.78;;;;;;;;;;4998562;28;97110;-79
2021/12/26 02:11:52;;;;;;;5.47;2.80;;;;;;;;;;4990292;28;96503;-77
2021/12/26 02:14:18;;;;;;;6.85;2.80;;;;;;;;;;4997351;28;97067;-75
2021/12/26 02:16:45;;;;;;;4.20;2.40;;;;;;;;;;4990609;28;97382;-75
2021/12/26 02:19:12;;;;;;;5.28;2.67;;;;;;;;;;4993154;28;95245;-75
2021/12/26 02:21:59;;;;;;;8.27;2.75;;;;;;;;;;5006176;28;97338;-74
2021/12/26 02:24:33;;;;;;;4.18;2.60;;;;;;;;;;4998609;28;96698;-75
2021/12/26 02:29:48;;;;;;;6.05;2.70;;;;;;;;;;4990542;28;97391;-76
2021/12/26 02:32:15;;;;;;;6.07;2.95;;;;;;;;;;4994686;28;95331;-76
2021/12/26 02:34:42;;;;;;;5.93;2.72;;;;;;;;;;4989341;28;96854;-76
2021/12/26 02:37:08;;;;;;;5.97;2.78;;;;;;;;;;4993285;28;97329;-76
2021/12/26 02:39:35;;;;;;;6.15;3.22;;;;;;;;;;4990476;28;95517;-77
2021/12/26 02:42:02;;;;;;;6.97;2.67;;;;;;;;;;5007809;28;97508;-75
2021/12/26 02:44:28;;;;;;;9.27;3.03;;;;;;;;;;5007536;28;95315;-76
2021/12/26 02:46:55;;;;;;;5.35;2.70;;;;;;;;;;4999489;28;96924;-76
2021/12/26 02:49:22;;;;;;;5.57;2.75;;;;;;;;;;4995078;28;97399;-80
2021/12/26 02:51:49;;;;;;;5.90;2.58;;;;;;;;;;4988782;28;96085;-79
2021/12/26 02:54:15;;;;;;;4.00;2.40;;;;;;;;;;4996152;28;96831;-80
2021/12/26 02:56:42;;;;;;;6.47;2.65;;;;;;;;;;4999081;28;97833;-80
2021/12/26 02:59:08;;;;;;;4.68;2.58;;;;;;;;;;4982746;28;95541;-78
2021/12/26 03:01:35;;;;;;;6.25;2.90;;;;;;;;;;5002691;28;96882;-80
2021/12/26 03:04:04;;;;;;;5.18;2.40;;;;;;;;;;4993955;28;95401;-80
2021/12/26 03:06:50;;;;;;;5.55;2.70;;;;;;;;;;5003110;28;96187;-79
2021/12/26 03:09:16;;;;;;;5.38;2.78;;;;;;;;;;4985559;28;96929;-79
2021/12/26 03:11:45;;;;;;;6.10;2.88;;;;;;;;;;4989665;28;96122;-78
2021/12/26 03:14:11;;;;;;;9.95;3.55;;;;;;;;;;4996656;28;96667;-77
2021/12/26 03:16:45;;;;;;;4.55;2.40;;;;;;;;;;4988370;28;97288;-80
2021/12/26 03:19:11;;;;;;;4.18;2.53;;;;;;;;;;4990918;28;96329;-77
2021/12/26 03:21:37;;;;;;;5.80;2.80;;;;;;;;;;4996455;28;95942;-76
2021/12/26 03:24:04;;;;;;;5.55;2.85;;;;;;;;;;4982339;28;97906;-77
2021/12/26 03:26:30;;;;;;;5.68;2.88;;;;;;;;;;5002193;28;96738;-79
2021/12/26 03:28:56;;;;;;;6.72;2.58;;;;;;;;;;4988142;28;97400;-77
2021/12/26 03:31:23;;;;;;;4.90;2.65;;;;;;;;;;5006591;28;95300;-78
2021/12/26 03:33:49;;;;;;;6.28;3.00;;;;;;;;;;4997370;28;97132;-77
2021/12/26 03:36:16;;;;;;;5.60;2.47;;;;;;;;;;5002562;28;97267;-76
2021/12/26 03:38:42;;;;;;;6.00;2.65;;;;;;;;;;5006827;28;95597;-78
2021/12/26 03:41:09;;;;;;;4.95;2.45;;;;;;;;;;4998434;28;97042;-77
2021/12/26 03:43:36;;;;;;;4.50;2.65;;;;;;;;;;5007616;28;97334;-78
2021/12/26 03:46:03;;;;;;;8.18;2.83;;;;;;;;;;4985499;28;95338;-76
2021/12/26 03:48:30;;;;;;;6.55;3.20;;;;;;;;;;4993333;28;97254;-77
2021/12/26 03:50:58;;;;;;;5.20;2.28;;;;;;;;;;5004987;28;95228;-77
2021/12/26 03:53:25;;;;;;;4.82;2.60;;;;;;;;;;4995024;28;96702;-80
2021/12/26 03:55:51;;;;;;;5.40;2.70;;;;;;;;;;4994389;28;97314;-79
2021/12/26 03:58:19;;;;;;;5.30;2.40;;;;;;;;;;4990893;28;95447;-78
2021/12/26 04:00:46;;;;;;;4.93;2.67;;;;;;;;;;4987989;28;96863;-78
2021/12/26 04:03:13;;;;;;;4.60;2.75;;;;;;;;;;4988405;28;97381;-77
2021/12/26 04:05:39;;;;;;;5.50;2.55;;;;;;;;;;4976314;28;95129;-79
2021/12/26 04:08:06;;;;;;;4.68;2.22;;;;;;;;;;5000408;28;97282;-80
2021/12/26 04:10:32;;;;;;;5.32;2.50;;;;;;;;;;4982835;28;96229;-79
2021/12/26 04:12:59;;;;;;;4.28;2.47;;;;;;;;;;4999365;28;97170;-79
2021/12/26 04:15:28;;;;;;;5.63;2.65;;;;;;;;;;4987993;28;97386;-79
2021/12/26 04:17:56;;;;;;;5.00;2.60;;;;;;;;;;4991726;28;96393;-78
2021/12/26 04:20:24;;;;;;;7.03;3.00;;;;;;;;;;4988333;28;96820;-80
2021/12/26 04:22:51;;;;;;;5.97;2.53;;;;;;;;;;4993984;28;97185;-77
2021/12/26 04:25:18;;;;;;;5.20;2.42;;;;;;;;;;5003478;28;95649;-79
2021/12/26 04:27:45;;;;;;;3.85;2.25;;;;;;;;;;5000211;28;96905;-79
2021/12/26 04:30:12;;;;;;;4.47;2.55;;;;;;;;;;4990537;28;95602;-75
2021/12/26 04:32:39;;;;;;;12.50;3.17;;;;;;;;;;4988183;28;97013;-74
2021/12/26 04:35:06;;;;;;;6.57;2.90;;;;;;;;;;4988653;28;97264;-74
2021/12/26 04:37:34;;;;;;;5.38;2.60;;;;;;;;;;4984614;28;95448;-75
2021/12/26 04:40:01;;;;;;;5.85;2.67;;;;;;;;;;4993442;28;96850;-78
2021/12/26 04:42:28;;;;;;;4.90;2.60;;;;;;;;;;4993424;28;97103;-79
2021/12/26 04:44:54;;;;;;;4.05;2.38;;;;;;;;;;4988106;28;95884;-78
2021/12/26 04:47:20;;;;;;;5.05;2.60;;;;;;;;;;4989381;28;96766;-78
2021/12/26 04:49:47;;;;;;;5.35;2.70;;;;;;;;;;4990028;28;97305;-77
2021/12/26 04:52:13;;;;;;;7.70;3.00;;;;;;;;;;5003761;28;97084;-78
2021/12/26 04:54:40;;;;;;;7.43;2.90;;;;;;;;;;4988042;28;97307;-78
2021/12/26 04:57:06;;;;;;;6.63;2.78;;;;;;;;;;4990755;28;95368;-81
2021/12/26 04:59:32;;;;;;;4.35;2.33;;;;;;;;;;5004761;28;97131;-78
2021/12/26 05:01:59;;;;;;;6.95;2.42;;;;;;;;;;5008079;28;97108;-78
2021/12/26 05:04:25;;;;;;;5.10;2.50;;;;;;;;;;5000709;28;95393;-77
2021/12/26 05:06:52;;;;;;;4.57;2.40;;;;;;;;;;5010811;28;97188;-78
2021/12/26 05:09:18;;;;;;;5.03;2.40;;;;;;;;;;5004871;28;97463;-78
2021/12/26 05:11:44;;;;;;;4.70;2.45;;;;;;;;;;4974730;28;95380;-78
2021/12/26 05:14:11;;;;;;;5.53;2.75;;;;;;;;;;4985186;28;97317;-80
2021/12/26 05:16:38;;;;;;;4.20;2.28;;;;;;;;;;4971354;28;95400;-79
2021/12/26 05:19:04;;;;;;;4.68;2.50;;;;;;;;;;4988213;28;96625;-79
2021/12/26 05:21:30;;;;;;;7.55;2.70;;;;;;;;;;4990631;28;98110;-79
2021/12/26 05:23:57;;;;;;;7.07;3.00;;;;;;;;;;4998084;28;95879;-79
2021/12/26 05:26:24;;;;;;;3.60;2.30;;;;;;;;;;4989929;28;96819;-78
2021/12/26 05:28:51;;;;;;;4.22;2.38;;;;;;;;;;4987261;28;97331;-79
2021/12/26 05:31:17;;;;;;;4.63;2.30;;;;;;;;;;4992786;28;95690;-78
2021/12/26 05:33:43;;;;;;;4.65;2.80;;;;;;;;;;4984622;28;96656;-78
2021/12/26 05:36:10;;;;;;;5.05;2.78;;;;;;;;;;4970690;28;96763;-79
2021/12/26 05:38:36;;;;;;;3.63;2.20;;;;;;;;;;4979241;28;96163;-79
2021/12/26 05:41:02;;;;;;;5.05;2.70;;;;;;;;;;4996452;28;97380;-78
2021/12/26 05:43:29;;;;;;;6.30;2.85;;;;;;;;;;4990240;28;95521;-77
2021/12/26 05:45:55;;;;;;;4.78;2.75;;;;;;;;;;4984242;28;96832;-78
2021/12/26 05:48:22;;;;;;;7.55;2.60;;;;;;;;;;5009341;28;96478;-76
2021/12/26 05:50:48;;;;;;;4.82;2.47;;;;;;;;;;4994757;28;95631;-78
2021/12/26 05:53:15;;;;;;;4.82;2.47;;;;;;;;;;4989794;28;96853;-76
2021/12/26 05:55:41;;;;;;;3.80;2.17;;;;;;;;;;4992250;28;96197;-78
2021/12/26 05:58:07;;;;;;;5.30;2.80;;;;;;;;;;4989142;28;96783;-78
2021/12/26 06:00:34;;;;;;;6.20;2.45;;;;;;;;;;4990445;28;97383;-78
2021/12/26 06:03:00;;;;;;;4.70;2.42;;;;;;;;;;4990182;28;95426;-76
2021/12/26 06:05:26;;;;;;;6.60;2.75;;;;;;;;;;4998402;28;97279;-76
2021/12/26 06:07:53;;;;;;;4.70;2.75;;;;;;;;;;4982941;28;97073;-77
2021/12/26 06:10:19;;;;;;;6.15;2.67;;;;;;;;;;4989759;28;95618;-78
2021/12/26 06:12:46;;;;;;;5.55;2.47;;;;;;;;;;4974657;28;96789;-76
2021/12/26 06:15:14;;;;;;;7.75;2.63;;;;;;;;;;4992709;28;97425;-77
2021/12/26 06:17:40;;;;;;;4.47;2.65;;;;;;;;;;4975567;28;95722;-78
2021/12/26 06:20:13;;;;;;;4.75;2.80;;;;;;;;;;4969864;28;99625;-78
2021/12/26 06:22:41;;;;;;;4.05;2.53;;;;;;;;;;4969873;28;96005;-78
2021/12/26 06:25:08;;;;;;;7.07;2.63;;;;;;;;;;4973640;28;96800;-78
2021/12/26 06:27:36;;;;;;;5.97;2.88;;;;;;;;;;4997881;28;97414;-77
2021/12/26 06:30:05;;;;;;;3.85;1.92;;;;;;;;;;4999335;28;95192;-77
2021/12/26 06:32:32;;;;;;;4.60;2.72;;;;;;;;;;4989719;28;97375;-76
2021/12/26 06:35:00;;;;;;;4.47;2.40;;;;;;;;;;4988977;28;97294;-78
2021/12/26 06:37:28;;;;;;;4.60;2.30;;;;;;;;;;4988345;28;95339;-77
2021/12/26 06:39:54;;;;;;;5.53;2.60;;;;;;;;;;4987634;28;97897;-78
2021/12/26 06:42:20;;;;;;;5.47;2.50;;;;;;;;;;4978336;28;95422;-78
2021/12/26 06:44:47;;;;;;;5.35;2.53;;;;;;;;;;4969297;28;96193;-78
2021/12/26 06:47:13;;;;;;;5.20;2.78;;;;;;;;;;4978570;28;97305;-79
2021/12/26 06:49:41;;;;;;;5.30;2.60;;;;;;;;;;4982166;28;95486;-79
2021/12/26 06:52:10;;;;;;;5.68;2.63;;;;;;;;;;4981547;28;96755;-78
2021/12/26 06:54:36;;;;;;;4.72;2.75;;;;;;;;;;5006891;28;97853;-78
2021/12/26 06:57:03;;;;;;;5.20;2.83;;;;;;;;;;5005680;28;95599;-77
2021/12/26 06:59:30;;;;;;;7.70;3.03;;;;;;;;;;4991375;28;97350;-78
2021/12/26 07:01:56;;;;;;;4.82;2.58;;;;;;;;;;4988250;28;95456;-79
2021/12/26 07:04:23;;;;;;;4.65;2.45;;;;;;;;;;4978142;28;99838;-78
2021/12/26 07:06:49;;;;;;;5.45;2.72;;;;;;;;;;4984227;28;99464;-79
2021/12/26 07:09:16;;;;;;;7.53;3.00;;;;;;;;;;5009098;28;96082;-78
2021/12/26 07:11:42;;;;;;;3.80;2.20;;;;;;;;;;5009705;28;96787;-77
2021/12/26 07:14:08;;;;;;;5.10;2.60;;;;;;;;;;5008573;28;97340;-77
2021/12/26 07:16:35;;;;;;;7.68;2.60;;;;;;;;;;5007927;28;95473;-77
2021/12/26 07:19:02;;;;;;;4.43;2.60;;;;;;;;;;4995747;28;98814;-78
2021/12/26 07:21:28;;;;;;;5.13;2.95;;;;;;;;;;4981721;28;97827;-79
2021/12/26 07:23:54;;;;;;;7.07;2.70;;;;;;;;;;4969411;28;97072;-77
2021/12/26 07:26:23;;;;;;;6.85;3.05;;;;;;;;;;4985506;28;96328;-79
2021/12/26 07:28:51;;;;;;;5.20;2.90;;;;;;;;;;5001763;28;96528;-77
2021/12/26 07:31:17;;;;;;;5.35;3.00;;;;;;;;;;4993381;28;97205;-77
2021/12/26 07:33:43;;;;;;;4.35;2.35;;;;;;;;;;4987366;28;97295;-77
2021/12/26 07:36:10;;;;;;;5.78;3.13;;;;;;;;;;4973876;28;96675;-80
2021/12/26 07:38:36;;;;;;;5.32;2.50;;;;;;;;;;4996496;28;95719;-76
2021/12/26 07:41:19;;;;;;;8.85;3.55;;;;;;;;;;5008147;28;97290;-79
2021/12/26 07:43:46;;;;;;;7.43;3.75;;;;;;;;;;4991528;28;95496;-79
2021/12/26 07:46:12;;;;;;;8.98;3.80;;;;;;;;;;4975095;28;97830;-78
2021/12/26 07:48:38;;;;;;;6.05;3.47;;;;;;;;;;4997208;28;95375;-78
2021/12/26 07:51:05;;;;;;;7.18;3.20;;;;;;;;;;5008911;28;95829;-79
2021/12/26 07:53:33;;;;;;;6.05;3.45;;;;;;;;;;5006901;28;97387;-78
2021/12/26 07:56:00;;;;;;;7.05;3.33;;;;;;;;;;4987875;28;95380;-79
2021/12/26 07:58:26;;;;;;;7.55;3.63;;;;;;;;;;4982147;28;97178;-79
2021/12/26 08:00:52;;;;;;;6.85;3.45;;;;;;;;;;4990937;28;96234;-79
2021/12/26 08:03:19;;;;;;;6.30;3.40;;;;;;;;;;4988130;28;95860;-80
2021/12/26 08:05:45;;;;;;;6.82;3.22;;;;;;;;;;4987809;28;96890;-77
2021/12/26 08:08:12;;;;;;;7.82;3.78;;;;;;;;;;4984975;28;95795;-77
2021/12/26 08:10:38;;;;;;;7.30;2.92;;;;;;;;;;4991044;28;96865;-77
2021/12/26 08:13:07;;;;;;;5.43;2.63;;;;;;;;;;4992151;28;97373;-78
2021/12/26 08:15:33;;;;;;;5.78;3.10;;;;;;;;;;4991696;28;96510;-79
2021/12/26 08:17:59;;;;;;;8.45;3.42;;;;;;;;;;4983069;28;95892;-78
2021/12/26 08:20:26;;;;;;;5.05;2.90;;;;;;;;;;4995217;28;97323;-79
2021/12/26 08:22:52;;;;;;;9.52;3.45;;;;;;;;;;5005807;28;95418;-78
2021/12/26 08:25:18;;;;;;;8.90;3.75;;;;;;;;;;4991651;28;97476;-77
2021/12/26 08:27:45;;;;;;;8.60;3.60;;;;;;;;;;4989803;28;97348;-78
2021/12/26 08:30:11;;;;;;;7.55;3.92;;;;;;;;;;4979410;28;96949;-78
2021/12/26 08:32:40;;;;;;;5.00;2.75;;;;;;;;;;4980306;28;97381;-77
2021/12/26 08:35:07;;;;;;;7.63;3.20;;;;;;;;;;4979559;28;95654;-76
2021/12/26 08:37:37;;;;;;;8.23;4.20;;;;;;;;;;4985983;28;96952;-79
2021/12/26 08:40:03;;;;;;;8.00;4.05;;;;;;;;;;4991501;28;97447;-78
2021/12/26 08:42:29;;;;;;;9.85;5.40;;;;;;;;;;4985755;28;95699;-78
2021/12/26 08:44:58;;;;;;;11.40;5.03;;;;;;;;;;4991340;28;96696;-78
2021/12/26 08:47:24;;;;;;;10.85;4.90;;;;;;;;;;4989524;28;97268;-76
2021/12/26 08:49:51;;;;;;;12.88;6.00;;;;;;;;;;4976875;28;97394;-78
2021/12/26 08:52:17;;;;;;;12.95;4.80;;;;;;;;;;4986941;28;97386;-78
2021/12/26 08:54:44;;;;;;;8.68;4.50;;;;;;;;;;4999135;28;95633;-77
2021/12/26 08:57:10;;;;;;;7.68;3.63;;;;;;;;;;4991145;28;97203;-77
2021/12/26 08:59:37;;;;;;;8.63;3.65;;;;;;;;;;4997927;28;97373;-78
2021/12/26 09:02:07;;;;;;;11.68;4.88;;;;;;;;;;4973959;28;95619;-78
2021/12/26 15:37:21;;;;;;;16.20;8.45;;;;;;;;;;5051136;27;1288998;-75
2021/12/26 15:39:47;;;;;;;18.77;8.68;;;;;;;;;;5075510;27;97307;-76
2021/12/26 15:42:13;;;;;;;16.13;8.90;;;;;;;;;;5081985;27;95727;-76
2021/12/26 15:44:40;;;;;;;12.63;7.47;;;;;;;;;;5080574;27;96846;-75
2021/12/26 15:47:06;;;;;;;14.35;8.52;;;;;;;;;;5068828;27;97206;-74
2021/12/26 15:49:33;;;;;;;14.70;8.43;;;;;;;;;;5080589;27;95631;-78
2021/12/26 15:52:02;;;;;;;15.20;8.90;;;;;;;;;;5078031;27;96327;-76
2021/12/26 15:54:28;;;;;;;16.52;9.43;;;;;;;;;;5071067;27;97827;-79
2021/12/26 15:56:54;;;;;;;16.08;9.32;;;;;;;;;;5068603;27;95596;-79
2021/12/26 15:59:25;;;;;;;17.00;8.40;;;;;;;;;;5072923;27;97300;-78
2021/12/26 16:01:52;;;;;;;15.95;8.85;;;;;;;;;;5076761;27;96344;-76
2021/12/26 16:04:18;;;;;;;14.77;8.32;;;;;;;;;;5077325;27;95813;-76
2021/12/26 16:06:45;;;;;;;16.35;9.43;;;;;;;;;;5070990;27;98089;-74
2021/12/26 16:09:12;;;;;;;17.98;9.05;;;;;;;;;;5072931;27;96038;-77
2021/12/26 16:11:39;;;;;;;20.33;10.57;;;;;;;;;;5072168;27;96807;-77
2021/12/26 16:14:06;;;;;;;20.92;9.98;;;;;;;;;;5064182;27;97530;-79
2021/12/26 16:16:32;;;;;;;19.27;10.05;;;;;;;;;;5075377;27;95319;-74
2021/12/26 16:18:59;;;;;;;17.63;9.50;;;;;;;;;;5072717;27;97219;-77
2021/12/26 16:21:25;;;;;;;17.15;9.50;;;;;;;;;;5079302;27;96514;-75
2021/12/26 16:23:52;;;;;;;21.65;9.52;;;;;;;;;;5083355;27;97184;-73
2021/12/26 16:26:18;;;;;;;20.27;10.30;;;;;;;;;;5072587;27;97344;-73
2021/12/26 16:28:45;;;;;;;19.45;10.20;;;;;;;;;;5070441;27;95673;-75
2021/12/26 16:31:11;;;;;;;16.38;9.40;;;;;;;;;;5066330;27;96712;-77
2021/12/26 16:33:38;;;;;;;18.85;9.75;;;;;;;;;;5070665;27;97298;-76
2021/12/26 16:36:04;;;;;;;17.98;9.43;;;;;;;;;;5065525;27;95500;-75
2021/12/26 16:38:31;;;;;;;17.33;9.00;;;;;;;;;;5069440;27;96627;-79
2021/12/26 16:40:59;;;;;;;28.13;9.50;;;;;;;;;;5074853;27;97376;-76
2021/12/26 16:43:25;;;;;;;19.50;9.88;;;;;;;;;;5082125;27;96955;-75
2021/12/26 16:45:53;;;;;;;16.80;9.77;;;;;;;;;;5075537;27;96306;-78
2021/12/26 16:48:22;;;;;;;18.90;9.38;;;;;;;;;;5062367;27;95410;-79
2021/12/26 16:50:49;;;;;;;19.00;10.10;;;;;;;;;;5055170;27;95822;-81
2021/12/26 16:53:17;;;;;;;20.63;10.15;;;;;;;;;;5053683;27;99034;-79
2021/12/26 16:55:45;;;;;;;16.17;9.60;;;;;;;;;;5051019;27;95572;-75
2021/12/26 16:58:11;;;;;;;22.05;12.63;;;;;;;;;;5056776;27;96927;-76
2021/12/26 17:00:38;;;;;;;18.05;9.93;;;;;;;;;;5052317;27;96981;-75
2021/12/26 17:03:05;;;;;;;19.67;11.15;;;;;;;;;;5060600;27;95485;-74
2021/12/26 17:05:32;;;;;;;18.10;9.98;;;;;;;;;;5058726;27;97636;-79
2021/12/26 17:07:59;;;;;;;23.30;12.27;;;;;;;;;;5057904;27;95465;-79
2021/12/26 17:10:25;;;;;;;20.25;10.50;;;;;;;;;;5056119;27;97236;-78
2021/12/26 17:12:51;;;;;;;16.33;10.30;;;;;;;;;;5053712;27;97267;-77
2021/12/26 17:15:18;;;;;;;19.60;10.50;;;;;;;;;;5060784;27;95382;-80
2021/12/26 17:17:45;;;;;;;17.05;10.18;;;;;;;;;;5061949;27;96900;-76
2021/12/26 17:20:12;;;;;;;18.52;10.68;;;;;;;;;;5052142;27;97686;-81
2021/12/26 17:22:38;;;;;;;18.88;9.93;;;;;;;;;;5065243;27;95803;-81
2021/12/26 17:25:05;;;;;;;17.38;10.35;;;;;;;;;;5065884;27;96806;-81
2021/12/26 17:27:31;;;;;;;17.98;9.93;;;;;;;;;;5051979;27;96110;-81
2021/12/26 17:30:00;;;;;;;18.80;9.98;;;;;;;;;;5063908;27;98292;-75
2021/12/26 17:32:26;;;;;;;19.50;10.88;;;;;;;;;;5061455;27;99623;-80
2021/12/26 17:34:52;;;;;;;22.65;11.82;;;;;;;;;;5054804;27;95132;-79
2021/12/26 17:37:19;;;;;;;19.05;10.20;;;;;;;;;;5058500;27;96749;-81
2021/12/26 17:39:45;;;;;;;19.73;10.35;;;;;;;;;;5054395;27;97584;-81
2021/12/26 17:42:12;;;;;;;27.65;12.07;;;;;;;;;;5057207;27;95480;-80
2021/12/26 17:44:39;;;;;;;19.40;11.90;;;;;;;;;;5058537;27;96620;-78
2021/12/26 17:47:06;;;;;;;21.17;12.45;;;;;;;;;;5070174;27;95809;-75
2021/12/26 17:49:33;;;;;;;20.40;10.55;;;;;;;;;;5054558;27;97137;-77
2021/12/26 17:51:59;;;;;;;19.90;11.05;;;;;;;;;;5050220;27;97519;-75
2021/12/26 17:54:25;;;;;;;20.85;11.73;;;;;;;;;;5056021;27;95653;-74
2021/12/26 17:56:52;;;;;;;22.90;11.43;;;;;;;;;;5060885;27;96956;-75
2021/12/26 17:59:18;;;;;;;19.35;11.43;;;;;;;;;;5060047;27;96981;-77
2021/12/26 18:01:48;;;;;;;20.05;11.65;;;;;;;;;;5060212;27;96206;-75
2021/12/26 18:04:15;;;;;;;19.88;11.40;;;;;;;;;;5061357;27;96589;-79
2021/12/26 18:06:43;;;;;;;21.77;12.60;;;;;;;;;;5068324;27;97622;-80
2021/12/26 18:09:10;;;;;;;22.70;12.07;;;;;;;;;;5054175;27;96518;-81
2021/12/26 18:11:36;;;;;;;22.33;12.80;;;;;;;;;;5063818;27;97563;-80
2021/12/26 18:14:03;;;;;;;22.67;12.55;;;;;;;;;;5051210;27;95643;-79
2021/12/26 18:16:29;;;;;;;21.48;12.85;;;;;;;;;;5052515;27;97062;-81
2021/12/26 18:18:55;;;;;;;20.83;11.75;;;;;;;;;;5060714;27;97300;-72
2021/12/26 18:21:22;;;;;;;20.52;11.50;;;;;;;;;;5061519;27;95726;-80
2021/12/26 18:23:48;;;;;;;22.15;11.98;;;;;;;;;;5063990;27;96754;-82
2021/12/26 18:26:19;;;;;;;21.67;12.35;;;;;;;;;;5054681;27;97825;-81
2021/12/26 18:28:46;;;;;;;23.85;13.68;;;;;;;;;;5063941;27;96116;-79
2021/12/26 18:31:13;;;;;;;20.77;11.90;;;;;;;;;;5063474;27;97700;-76
2021/12/26 18:33:39;;;;;;;23.52;13.80;;;;;;;;;;5052091;27;95978;-78
2021/12/26 18:36:06;;;;;;;25.90;14.93;;;;;;;;;;5050101;27;96753;-79
2021/12/26 18:38:32;;;;;;;32.78;16.75;;;;;;;;;;5057343;27;97277;-76
2021/12/26 18:41:01;;;;;;;29.38;16.02;;;;;;;;;;5054554;27;95417;-79
2021/12/26 18:43:27;;;;;;;26.52;15.07;;;;;;;;;;5050876;27;96753;-77
2021/12/26 18:45:55;;;;;;;30.40;16.30;;;;;;;;;;5055759;27;97665;-80
2021/12/26 18:48:23;;;;;;;30.50;15.68;;;;;;;;;;5054219;27;95650;-82
2021/12/26 18:50:51;;;;;;;26.10;13.63;;;;;;;;;;5054472;27;96917;-81
2021/12/26 18:53:19;;;;;;;26.60;12.38;;;;;;;;;;5047825;27;95563;-79
2021/12/26 18:55:46;;;;;;;24.70;12.35;;;;;;;;;;5047080;27;96835;-80
2021/12/26 18:58:13;;;;;;;25.33;13.30;;;;;;;;;;5051589;27;97296;-83
2021/12/26 19:00:41;;;;;;;29.27;14.13;;;;;;;;;;5061833;27;95760;-81
2021/12/26 19:03:09;;;;;;;23.73;13.18;;;;;;;;;;5053347;27;96712;-81
2021/12/26 19:05:41;;;;;;;24.58;13.10;;;;;;;;;;5054951;27;97703;-82
2021/12/26 19:08:09;;;;;;;24.88;12.65;;;;;;;;;;5051444;27;96995;-75
2021/12/26 19:10:35;;;;;;;26.38;14.20;;;;;;;;;;5051435;27;96829;-79
2021/12/26 19:13:03;;;;;;;28.75;14.30;;;;;;;;;;5058100;27;97336;-75
2021/12/26 19:15:29;;;;;;;27.40;14.85;;;;;;;;;;5052569;27;97015;-81
2021/12/26 19:17:56;;;;;;;30.38;13.80;;;;;;;;;;5047102;27;97439;-81
2021/12/26 19:20:22;;;;;;;24.67;13.80;;;;;;;;;;5045858;27;95390;-81
2021/12/26 19:22:48;;;;;;;26.00;13.45;;;;;;;;;;5050733;27;96078;-80
2021/12/26 19:25:15;;;;;;;33.42;16.88;;;;;;;;;;5055823;27;97527;-76
2021/12/26 19:27:43;;;;;;;27.10;14.82;;;;;;;;;;5049811;27;95631;-79
2021/12/26 19:30:09;;;;;;;26.55;14.63;;;;;;;;;;5060206;27;96978;-79
2021/12/26 19:32:36;;;;;;;24.75;14.27;;;;;;;;;;5050891;27;97443;-80
2021/12/26 19:35:02;;;;;;;28.60;15.52;;;;;;;;;;5058043;27;95426;-81
2021/12/26 19:37:28;;;;;;;25.77;14.45;;;;;;;;;;5059340;27;97500;-80
2021/12/26 19:39:55;;;;;;;22.75;13.43;;;;;;;;;;5052269;27;96786;-79
2021/12/26 19:42:21;;;;;;;26.55;14.30;;;;;;;;;;5055750;27;97100;-79
2021/12/26 19:44:47;;;;;;;26.92;14.55;;;;;;;;;;5059465;27;97393;-77
2021/12/26 19:47:14;;;;;;;21.77;13.18;;;;;;;;;;5061096;27;95702;-82
2021/12/26 19:49:40;;;;;;;25.25;13.75;;;;;;;;;;5052408;27;97259;-75
2021/12/26 19:52:07;;;;;;;26.92;13.80;;;;;;;;;;5046649;27;97725;-73
2021/12/26 19:54:33;;;;;;;26.42;14.05;;;;;;;;;;5059106;27;96288;-76
2021/12/26 19:57:00;;;;;;;27.83;14.50;;;;;;;;;;5060829;27;97756;-74
2021/12/26 19:59:27;;;;;;;23.88;13.52;;;;;;;;;;5058048;27;96333;-81
2021/12/26 20:01:53;;;;;;;23.77;13.15;;;;;;;;;;5059059;27;96742;-75
2021/12/26 20:04:20;;;;;;;26.52;13.18;;;;;;;;;;5054924;27;97200;-75
2021/12/26 20:06:46;;;;;;;26.08;14.10;;;;;;;;;;5046334;27;96363;-75
2021/12/26 20:09:13;;;;;;;23.40;12.75;;;;;;;;;;5051199;27;96767;-75
2021/12/26 20:11:40;;;;;;;24.15;13.32;;;;;;;;;;5057433;27;97472;-74
2021/12/26 20:14:06;;;;;;;24.88;13.32;;;;;;;;;;5055835;27;95434;-78
2021/12/26 20:16:34;;;;;;;24.92;13.20;;;;;;;;;;5066959;27;95725;-79
2021/12/26 20:19:00;;;;;;;24.60;13.93;;;;;;;;;;5054114;27;95816;-76
2021/12/26 20:21:26;;;;;;;24.90;13.88;;;;;;;;;;5046318;27;97101;-78
2021/12/26 20:23:54;;;;;;;22.77;13.85;;;;;;;;;;5053319;27;97887;-81
2021/12/26 20:26:21;;;;;;;25.15;13.60;;;;;;;;;;5054162;27;96657;-75
2021/12/26 20:28:50;;;;;;;24.10;14.20;;;;;;;;;;5053620;27;97057;-77
2021/12/26 20:31:16;;;;;;;24.92;13.57;;;;;;;;;;5059592;27;97174;-78
2021/12/26 20:33:43;;;;;;;31.55;14.38;;;;;;;;;;5061373;27;95763;-79
2021/12/26 20:36:10;;;;;;;27.70;14.32;;;;;;;;;;5053070;27;95612;-78
2021/12/26 20:38:38;;;;;;;26.63;14.52;;;;;;;;;;5057862;27;97459;-82
2021/12/26 20:41:05;;;;;;;22.80;14.40;;;;;;;;;;5055233;27;96849;-78
2021/12/26 20:43:32;;;;;;;26.38;15.05;;;;;;;;;;5053310;27;97612;-77
2021/12/26 20:45:59;;;;;;;27.35;14.98;;;;;;;;;;5054823;27;95346;-76
2021/12/26 20:48:25;;;;;;;27.35;14.93;;;;;;;;;;5062921;27;96867;-80
2021/12/26 20:50:52;;;;;;;26.85;14.77;;;;;;;;;;5052206;27;97742;-80
2021/12/26 20:53:19;;;;;;;27.83;15.02;;;;;;;;;;5051308;27;95203;-82
2021/12/26 20:55:46;;;;;;;26.38;15.27;;;;;;;;;;5063242;27;97250;-82
2021/12/26 20:58:12;;;;;;;27.45;14.88;;;;;;;;;;5056702;27;97631;-81
2021/12/26 21:00:39;;;;;;;28.15;15.63;;;;;;;;;;5057105;27;95373;-81
2021/12/26 21:03:05;;;;;;;33.15;16.00;;;;;;;;;;5062427;27;97314;-77
2021/12/26 21:05:32;;;;;;;27.38;15.13;;;;;;;;;;5063080;27;95243;-82
2021/12/26 21:07:59;;;;;;;29.55;15.57;;;;;;;;;;5049392;27;97146;-75
2021/12/26 21:10:26;;;;;;;32.78;16.42;;;;;;;;;;5051098;27;97409;-82